sensor_id;sensor_type;location;lat;lon;timestamp;pressure;altitude;pressure_sealevel;temperature;humidity
47811;BME280;33575;52.600;7.318;2022-12-18T00:00:41;102721.88;;;-5.35;83.67
47811;BME280;33575;52.600;7.318;2022-12-18T00:03:11;102722.16;;;-5.56;83.31
47811;BME280;33575;52.600;7.318;2022-12-18T00:05:47;102720.31;;;-5.71;84.02
47811;BME280;33575;52.600;7.318;2022-12-18T00:08:13;102716.65;;;-5.78;85.02
47811;BME280;33575;52.600;7.318;2022-12-18T00:10:44;102712.68;;;-5.81;85.37
47811;BME280;33575;52.600;7.318;2022-12-18T00:13:14;102702.85;;;-5.85;85.78
47811;BME280;33575;52.600;7.318;2022-12-18T00:15:45;102700.50;;;-5.88;86.19
47811;BME280;33575;52.600;7.318;2022-12-18T00:18:20;102701.52;;;-5.89;86.61
47811;BME280;33575;52.600;7.318;2022-12-18T00:20:46;102704.51;;;-5.85;86.90
47811;BME280;33575;52.600;7.318;2022-12-18T00:23:16;102704.03;;;-5.82;87.10
47811;BME280;33575;52.600;7.318;2022-12-18T00:25:46;102710.21;;;-5.83;87.18
47811;BME280;33575;52.600;7.318;2022-12-18T00:28:17;102715.22;;;-5.85;87.34
47811;BME280;33575;52.600;7.318;2022-12-18T00:30:48;102714.08;;;-5.91;87.48
47811;BME280;33575;52.600;7.318;2022-12-18T00:33:18;102713.13;;;-5.93;87.56
47811;BME280;33575;52.600;7.318;2022-12-18T00:35:48;102724.61;;;-5.95;86.77
47811;BME280;33575;52.600;7.318;2022-12-18T00:38:19;102730.33;;;-6.01;85.94
47811;BME280;33575;52.600;7.318;2022-12-18T00:40:49;102733.19;;;-6.13;84.84
47811;BME280;33575;52.600;7.318;2022-12-18T00:43:20;102735.54;;;-6.24;85.56
47811;BME280;33575;52.600;7.318;2022-12-18T00:45:50;102733.47;;;-6.22;86.14
47811;BME280;33575;52.600;7.318;2022-12-18T00:48:21;102730.76;;;-6.20;86.32
47811;BME280;33575;52.600;7.318;2022-12-18T00:50:51;102727.95;;;-6.19;86.55
47811;BME280;33575;52.600;7.318;2022-12-18T00:53:22;102727.26;;;-6.17;86.76
47811;BME280;33575;52.600;7.318;2022-12-18T00:55:52;102727.68;;;-6.16;86.93
47811;BME280;33575;52.600;7.318;2022-12-18T00:58:23;102722.25;;;-6.16;86.83
47811;BME280;33575;52.600;7.318;2022-12-18T01:00:53;102716.49;;;-6.16;86.54
47811;BME280;33575;52.600;7.318;2022-12-18T01:03:24;102712.29;;;-6.16;86.50
47811;BME280;33575;52.600;7.318;2022-12-18T01:05:54;102711.59;;;-6.15;86.39
47811;BME280;33575;52.600;7.318;2022-12-18T01:08:25;102711.37;;;-6.14;86.27
47811;BME280;33575;52.600;7.318;2022-12-18T01:10:55;102707.50;;;-6.11;86.46
47811;BME280;33575;52.600;7.318;2022-12-18T01:13:26;102701.64;;;-6.11;86.19
47811;BME280;33575;52.600;7.318;2022-12-18T01:15:56;102702.97;;;-6.14;85.89
47811;BME280;33575;52.600;7.318;2022-12-18T01:18:26;102703.73;;;-6.16;85.98
47811;BME280;33575;52.600;7.318;2022-12-18T01:20:56;102711.25;;;-6.18;85.84
47811;BME280;33575;52.600;7.318;2022-12-18T01:23:27;102718.40;;;-6.23;85.16
47811;BME280;33575;52.600;7.318;2022-12-18T01:25:58;102715.58;;;-6.19;86.40
47811;BME280;33575;52.600;7.318;2022-12-18T01:28:28;102717.87;;;-6.06;86.65
47811;BME280;33575;52.600;7.318;2022-12-18T01:33:29;102724.57;;;-5.83;89.92
47811;BME280;33575;52.600;7.318;2022-12-18T01:36:00;102727.81;;;-5.93;88.30
47811;BME280;33575;52.600;7.318;2022-12-18T01:38:30;102725.93;;;-6.10;87.41
47811;BME280;33575;52.600;7.318;2022-12-18T01:41:01;102733.55;;;-6.28;86.83
47811;BME280;33575;52.600;7.318;2022-12-18T01:46:02;102736.42;;;-6.56;86.10
47811;BME280;33575;52.600;7.318;2022-12-18T01:48:32;102735.12;;;-6.62;85.63
47811;BME280;33575;52.600;7.318;2022-12-18T01:51:05;102738.83;;;-6.69;85.42
47811;BME280;33575;52.600;7.318;2022-12-18T01:53:34;102740.87;;;-6.73;85.32
47811;BME280;33575;52.600;7.318;2022-12-18T01:56:05;102735.68;;;-6.79;85.22
47811;BME280;33575;52.600;7.318;2022-12-18T01:58:39;102731.18;;;-6.81;85.56
47811;BME280;33575;52.600;7.318;2022-12-18T02:01:05;102732.67;;;-6.82;85.89
47811;BME280;33575;52.600;7.318;2022-12-18T02:03:36;102735.40;;;-6.82;86.25
47811;BME280;33575;52.600;7.318;2022-12-18T02:06:11;102737.41;;;-6.82;86.33
47811;BME280;33575;52.600;7.318;2022-12-18T02:08:42;102733.93;;;-6.82;86.25
47811;BME280;33575;52.600;7.318;2022-12-18T02:11:10;102732.06;;;-6.82;86.48
47811;BME280;33575;52.600;7.318;2022-12-18T02:13:43;102733.38;;;-6.80;86.37
47811;BME280;33575;52.600;7.318;2022-12-18T02:16:15;102735.75;;;-6.80;86.30
47811;BME280;33575;52.600;7.318;2022-12-18T02:18:41;102739.47;;;-6.85;86.28
47811;BME280;33575;52.600;7.318;2022-12-18T02:21:15;102739.40;;;-6.92;86.16
47811;BME280;33575;52.600;7.318;2022-12-18T02:23:47;102736.66;;;-6.93;86.24
47811;BME280;33575;52.600;7.318;2022-12-18T02:26:15;102731.77;;;-6.94;86.04
47811;BME280;33575;52.600;7.318;2022-12-18T02:28:42;102729.25;;;-6.95;86.17
47811;BME280;33575;52.600;7.318;2022-12-18T02:31:15;102727.31;;;-6.94;86.11
47811;BME280;33575;52.600;7.318;2022-12-18T02:33:43;102717.86;;;-6.95;85.87
47811;BME280;33575;52.600;7.318;2022-12-18T02:36:12;102709.68;;;-6.97;86.01
47811;BME280;33575;52.600;7.318;2022-12-18T02:38:42;102707.69;;;-6.96;85.92
47811;BME280;33575;52.600;7.318;2022-12-18T02:41:13;102707.61;;;-7.01;85.78
47811;BME280;33575;52.600;7.318;2022-12-18T02:43:47;102709.90;;;-6.98;85.92
47811;BME280;33575;52.600;7.318;2022-12-18T02:48:44;102718.15;;;-6.95;85.71
47811;BME280;33575;52.600;7.318;2022-12-18T02:51:20;102717.12;;;-6.92;85.62
47811;BME280;33575;52.600;7.318;2022-12-18T02:53:51;102717.19;;;-6.92;85.47
47811;BME280;33575;52.600;7.318;2022-12-18T02:56:20;102712.37;;;-6.93;85.32
47811;BME280;33575;52.600;7.318;2022-12-18T02:58:52;102711.49;;;-6.94;85.30
47811;BME280;33575;52.600;7.318;2022-12-18T03:01:21;102705.90;;;-6.93;85.13
47811;BME280;33575;52.600;7.318;2022-12-18T03:03:52;102695.21;;;-6.95;85.07
47811;BME280;33575;52.600;7.318;2022-12-18T03:06:22;102691.61;;;-6.99;85.02
47811;BME280;33575;52.600;7.318;2022-12-18T03:08:51;102693.17;;;-7.00;85.41
47811;BME280;33575;52.600;7.318;2022-12-18T03:11:18;102696.78;;;-6.98;85.71
47811;BME280;33575;52.600;7.318;2022-12-18T03:13:52;102701.26;;;-6.92;92.23
47811;BME280;33575;52.600;7.318;2022-12-18T03:16:23;102701.11;;;-6.84;89.05
47811;BME280;33575;52.600;7.318;2022-12-18T03:18:53;102701.46;;;-6.94;86.71
47811;BME280;33575;52.600;7.318;2022-12-18T03:21:23;102704.23;;;-7.03;85.93
47811;BME280;33575;52.600;7.318;2022-12-18T03:23:52;102709.14;;;-7.11;85.29
47811;BME280;33575;52.600;7.318;2022-12-18T03:26:24;102711.51;;;-7.23;84.81
47811;BME280;33575;52.600;7.318;2022-12-18T03:28:54;102708.00;;;-7.32;84.63
47811;BME280;33575;52.600;7.318;2022-12-18T03:31:23;102703.54;;;-7.39;84.44
47811;BME280;33575;52.600;7.318;2022-12-18T03:33:55;102698.21;;;-7.49;84.44
47811;BME280;33575;52.600;7.318;2022-12-18T03:36:24;102696.56;;;-7.54;84.11
47811;BME280;33575;52.600;7.318;2022-12-18T03:38:54;102697.57;;;-7.57;84.14
47811;BME280;33575;52.600;7.318;2022-12-18T03:41:29;102699.67;;;-7.60;84.59
47811;BME280;33575;52.600;7.318;2022-12-18T03:44:00;102700.02;;;-7.56;85.32
47811;BME280;33575;52.600;7.318;2022-12-18T03:46:29;102698.16;;;-7.54;85.80
47811;BME280;33575;52.600;7.318;2022-12-18T03:49:01;102704.75;;;-7.48;86.00
47811;BME280;33575;52.600;7.318;2022-12-18T03:51:31;102706.30;;;-7.42;86.00
47811;BME280;33575;52.600;7.318;2022-12-18T03:53:58;102707.69;;;-7.39;86.05
47811;BME280;33575;52.600;7.318;2022-12-18T03:56:30;102704.87;;;-7.35;85.84
47811;BME280;33575;52.600;7.318;2022-12-18T03:58:59;102699.58;;;-7.35;85.89
47811;BME280;33575;52.600;7.318;2022-12-18T04:01:33;102698.42;;;-7.35;84.93
47811;BME280;33575;52.600;7.318;2022-12-18T04:04:00;102693.81;;;-7.40;84.72
47811;BME280;33575;52.600;7.318;2022-12-18T04:06:30;102694.99;;;-7.45;84.81
47811;BME280;33575;52.600;7.318;2022-12-18T04:09:00;102696.93;;;-7.47;84.37
47811;BME280;33575;52.600;7.318;2022-12-18T04:11:31;102700.12;;;-7.51;84.68
47811;BME280;33575;52.600;7.318;2022-12-18T04:14:06;102703.59;;;-7.51;84.75
47811;BME280;33575;52.600;7.318;2022-12-18T04:16:31;102708.79;;;-7.50;84.59
47811;BME280;33575;52.600;7.318;2022-12-18T04:19:01;102708.76;;;-7.50;83.04
47811;BME280;33575;52.600;7.318;2022-12-18T04:21:32;102712.45;;;-7.54;83.23
47811;BME280;33575;52.600;7.318;2022-12-18T04:24:03;102707.88;;;-7.60;82.52
47811;BME280;33575;52.600;7.318;2022-12-18T04:26:33;102701.77;;;-7.66;83.34
47811;BME280;33575;52.600;7.318;2022-12-18T04:29:04;102693.10;;;-7.67;83.84
47811;BME280;33575;52.600;7.318;2022-12-18T04:31:34;102690.67;;;-7.59;84.17
47811;BME280;33575;52.600;7.318;2022-12-18T04:34:04;102689.32;;;-7.46;84.61
47811;BME280;33575;52.600;7.318;2022-12-18T04:36:34;102682.84;;;-7.23;92.80
47811;BME280;33575;52.600;7.318;2022-12-18T04:39:05;102681.67;;;-7.07;89.65
47811;BME280;33575;52.600;7.318;2022-12-18T04:41:36;102682.17;;;-7.08;87.18
47811;BME280;33575;52.600;7.318;2022-12-18T04:44:06;102680.65;;;-7.24;85.93
47811;BME280;33575;52.600;7.318;2022-12-18T04:46:37;102675.80;;;-7.38;85.65
47811;BME280;33575;52.600;7.318;2022-12-18T04:49:08;102686.09;;;-7.48;85.28
47811;BME280;33575;52.600;7.318;2022-12-18T04:51:38;102685.04;;;-7.61;85.39
47811;BME280;33575;52.600;7.318;2022-12-18T04:54:09;102681.11;;;-7.75;85.35
47811;BME280;33575;52.600;7.318;2022-12-18T04:56:39;102683.16;;;-7.88;85.58
47811;BME280;33575;52.600;7.318;2022-12-18T04:59:09;102682.23;;;-7.93;85.74
47811;BME280;33575;52.600;7.318;2022-12-18T05:01:40;102683.01;;;-7.94;86.06
47811;BME280;33575;52.600;7.318;2022-12-18T05:04:10;102683.14;;;-7.90;86.20
47811;BME280;33575;52.600;7.318;2022-12-18T05:06:40;102675.21;;;-7.85;86.81
47811;BME280;33575;52.600;7.318;2022-12-18T05:09:11;102675.99;;;-7.80;86.95
47811;BME280;33575;52.600;7.318;2022-12-18T05:11:41;102675.22;;;-7.74;86.41
47811;BME280;33575;52.600;7.318;2022-12-18T05:14:12;102676.98;;;-7.71;86.32
47811;BME280;33575;52.600;7.318;2022-12-18T05:16:42;102681.97;;;-7.68;86.17
47811;BME280;33575;52.600;7.318;2022-12-18T05:19:14;102690.02;;;-7.65;85.72
47811;BME280;33575;52.600;7.318;2022-12-18T05:21:43;102689.40;;;-7.66;86.02
47811;BME280;33575;52.600;7.318;2022-12-18T05:24:14;102691.25;;;-7.60;86.22
47811;BME280;33575;52.600;7.318;2022-12-18T05:26:45;102693.18;;;-7.55;86.31
47811;BME280;33575;52.600;7.318;2022-12-18T05:29:15;102691.39;;;-7.50;86.20
47811;BME280;33575;52.600;7.318;2022-12-18T05:31:46;102691.82;;;-7.43;85.93
47811;BME280;33575;52.600;7.318;2022-12-18T05:34:16;102700.02;;;-7.39;85.82
47811;BME280;33575;52.600;7.318;2022-12-18T05:36:46;102707.59;;;-7.38;85.26
47811;BME280;33575;52.600;7.318;2022-12-18T05:39:17;102704.18;;;-7.40;84.99
47811;BME280;33575;52.600;7.318;2022-12-18T05:41:48;102706.95;;;-7.42;84.68
47811;BME280;33575;52.600;7.318;2022-12-18T05:44:18;102707.91;;;-7.44;84.87
47811;BME280;33575;52.600;7.318;2022-12-18T05:46:50;102709.89;;;-7.46;84.97
47811;BME280;33575;52.600;7.318;2022-12-18T05:49:19;102705.62;;;-7.44;85.13
47811;BME280;33575;52.600;7.318;2022-12-18T05:51:50;102703.28;;;-7.40;85.17
47811;BME280;33575;52.600;7.318;2022-12-18T05:54:20;102704.51;;;-7.36;85.17
47811;BME280;33575;52.600;7.318;2022-12-18T05:56:51;102705.91;;;-7.33;85.33
47811;BME280;33575;52.600;7.318;2022-12-18T05:59:21;102705.63;;;-7.27;85.79
47811;BME280;33575;52.600;7.318;2022-12-18T06:01:52;102701.10;;;-7.20;85.74
47811;BME280;33575;52.600;7.318;2022-12-18T06:04:23;102705.02;;;-7.06;94.36
47811;BME280;33575;52.600;7.318;2022-12-18T06:06:53;102713.98;;;-7.01;89.20
47811;BME280;33575;52.600;7.318;2022-12-18T06:09:23;102722.01;;;-7.06;87.01
47811;BME280;33575;52.600;7.318;2022-12-18T06:11:54;102732.37;;;-7.15;86.00
47811;BME280;33575;52.600;7.318;2022-12-18T06:14:25;102736.14;;;-7.25;85.10
47811;BME280;33575;52.600;7.318;2022-12-18T06:16:56;102730.18;;;-7.36;84.84
47811;BME280;33575;52.600;7.318;2022-12-18T06:19:26;102731.54;;;-7.44;84.43
47811;BME280;33575;52.600;7.318;2022-12-18T06:21:56;102730.12;;;-7.49;84.28
47811;BME280;33575;52.600;7.318;2022-12-18T06:24:27;102732.48;;;-7.60;84.22
47811;BME280;33575;52.600;7.318;2022-12-18T06:26:58;102738.99;;;-7.64;84.62
47811;BME280;33575;52.600;7.318;2022-12-18T06:29:28;102743.83;;;-7.66;84.71
47811;BME280;33575;52.600;7.318;2022-12-18T06:31:58;102743.69;;;-7.66;85.13
47811;BME280;33575;52.600;7.318;2022-12-18T06:34:28;102742.13;;;-7.64;85.64
47811;BME280;33575;52.600;7.318;2022-12-18T06:36:59;102745.66;;;-7.60;85.90
47811;BME280;33575;52.600;7.318;2022-12-18T06:39:29;102747.44;;;-7.61;86.04
47811;BME280;33575;52.600;7.318;2022-12-18T06:42:00;102748.02;;;-7.59;86.17
47811;BME280;33575;52.600;7.318;2022-12-18T06:44:30;102740.04;;;-7.55;85.89
47811;BME280;33575;52.600;7.318;2022-12-18T06:47:00;102737.06;;;-7.53;86.00
47811;BME280;33575;52.600;7.318;2022-12-18T06:49:31;102738.65;;;-7.53;85.90
47811;BME280;33575;52.600;7.318;2022-12-18T06:52:02;102742.26;;;-7.51;85.55
47811;BME280;33575;52.600;7.318;2022-12-18T06:54:33;102740.43;;;-7.50;85.79
47811;BME280;33575;52.600;7.318;2022-12-18T06:57:03;102737.67;;;-7.51;85.73
47811;BME280;33575;52.600;7.318;2022-12-18T06:59:33;102731.07;;;-7.50;85.64
47811;BME280;33575;52.600;7.318;2022-12-18T07:02:04;102732.56;;;-7.50;85.43
47811;BME280;33575;52.600;7.318;2022-12-18T07:04:35;102729.15;;;-7.49;85.39
47811;BME280;33575;52.600;7.318;2022-12-18T07:07:05;102730.26;;;-7.51;85.34
47811;BME280;33575;52.600;7.318;2022-12-18T07:09:36;102733.38;;;-7.51;85.40
47811;BME280;33575;52.600;7.318;2022-12-18T07:12:07;102730.68;;;-7.50;85.25
47811;BME280;33575;52.600;7.318;2022-12-18T07:14:38;102730.83;;;-7.49;85.17
47811;BME280;33575;52.600;7.318;2022-12-18T07:17:08;102731.26;;;-7.50;85.11
47811;BME280;33575;52.600;7.318;2022-12-18T07:19:39;102727.43;;;-7.50;84.87
47811;BME280;33575;52.600;7.318;2022-12-18T07:22:09;102726.99;;;-7.49;84.81
47811;BME280;33575;52.600;7.318;2022-12-18T07:24:39;102728.41;;;-7.48;85.03
47811;BME280;33575;52.600;7.318;2022-12-18T07:27:11;102730.33;;;-7.47;84.87
47811;BME280;33575;52.600;7.318;2022-12-18T07:29:40;102726.57;;;-7.44;85.42
47811;BME280;33575;52.600;7.318;2022-12-18T07:32:11;102728.35;;;-7.32;85.86
47811;BME280;33575;52.600;7.318;2022-12-18T07:34:41;102727.65;;;-7.18;85.97
47811;BME280;33575;52.600;7.318;2022-12-18T07:37:11;102722.28;;;-6.99;91.67
47811;BME280;33575;52.600;7.318;2022-12-18T07:39:41;102712.59;;;-6.96;87.94
47811;BME280;33575;52.600;7.318;2022-12-18T07:42:12;102703.59;;;-7.04;86.29
47811;BME280;33575;52.600;7.318;2022-12-18T07:44:42;102699.32;;;-7.11;85.54
47811;BME280;33575;52.600;7.318;2022-12-18T07:47:13;102695.13;;;-7.24;84.71
47811;BME280;33575;52.600;7.318;2022-12-18T07:49:43;102690.47;;;-7.32;84.83
47811;BME280;33575;52.600;7.318;2022-12-18T07:52:13;102688.45;;;-7.41;84.19
47811;BME280;33575;52.600;7.318;2022-12-18T07:54:44;102695.16;;;-7.48;84.28
47811;BME280;33575;52.600;7.318;2022-12-18T07:57:19;102698.37;;;-7.56;84.24
47811;BME280;33575;52.600;7.318;2022-12-18T07:59:45;102702.31;;;-7.59;84.58
47811;BME280;33575;52.600;7.318;2022-12-18T08:02:16;102700.99;;;-7.63;84.40
47811;BME280;33575;52.600;7.318;2022-12-18T08:04:46;102696.25;;;-7.63;84.96
47811;BME280;33575;52.600;7.318;2022-12-18T08:07:17;102694.25;;;-7.65;85.31
47811;BME280;33575;52.600;7.318;2022-12-18T08:09:47;102692.58;;;-7.64;85.61
47811;BME280;33575;52.600;7.318;2022-12-18T08:12:18;102696.37;;;-7.60;86.00
47811;BME280;33575;52.600;7.318;2022-12-18T08:14:48;102703.91;;;-7.56;85.46
47811;BME280;33575;52.600;7.318;2022-12-18T08:17:19;102707.38;;;-7.53;85.72
47811;BME280;33575;52.600;7.318;2022-12-18T08:19:49;102708.64;;;-7.52;85.96
47811;BME280;33575;52.600;7.318;2022-12-18T08:22:19;102711.60;;;-7.47;86.00
47811;BME280;33575;52.600;7.318;2022-12-18T08:24:50;102708.80;;;-7.41;86.15
47811;BME280;33575;52.600;7.318;2022-12-18T08:27:25;102711.38;;;-7.37;85.82
47811;BME280;33575;52.600;7.318;2022-12-18T08:29:50;102710.29;;;-7.35;85.45
47811;BME280;33575;52.600;7.318;2022-12-18T08:32:21;102702.48;;;-7.36;85.35
47811;BME280;33575;52.600;7.318;2022-12-18T08:34:52;102694.96;;;-7.32;85.74
47811;BME280;33575;52.600;7.318;2022-12-18T08:37:22;102683.35;;;-7.27;85.77
47811;BME280;33575;52.600;7.318;2022-12-18T08:39:53;102674.10;;;-7.19;85.81
47811;BME280;33575;52.600;7.318;2022-12-18T08:42:23;102671.61;;;-7.17;85.92
47811;BME280;33575;52.600;7.318;2022-12-18T08:44:54;102673.64;;;-7.13;85.94
47811;BME280;33575;52.600;7.318;2022-12-18T08:47:24;102674.33;;;-7.12;86.10
47811;BME280;33575;52.600;7.318;2022-12-18T08:49:55;102663.90;;;-7.12;86.16
47811;BME280;33575;52.600;7.318;2022-12-18T08:52:25;102661.61;;;-7.12;86.30
47811;BME280;33575;52.600;7.318;2022-12-18T08:54:56;102656.77;;;-7.10;86.35
47811;BME280;33575;52.600;7.318;2022-12-18T08:57:26;102651.98;;;-7.04;86.58
47811;BME280;33575;52.600;7.318;2022-12-18T08:59:57;102652.71;;;-6.91;87.09
47811;BME280;33575;52.600;7.318;2022-12-18T09:02:27;102652.85;;;-6.78;87.27
47811;BME280;33575;52.600;7.318;2022-12-18T09:04:58;102659.80;;;-6.59;93.59
47811;BME280;33575;52.600;7.318;2022-12-18T09:07:27;102667.44;;;-6.48;89.68
47811;BME280;33575;52.600;7.318;2022-12-18T09:09:58;102662.92;;;-6.46;88.46
47811;BME280;33575;52.600;7.318;2022-12-18T09:12:29;102668.63;;;-6.50;86.97
47811;BME280;33575;52.600;7.318;2022-12-18T09:15:00;102675.21;;;-6.55;86.88
47811;BME280;33575;52.600;7.318;2022-12-18T09:17:31;102675.95;;;-6.61;86.03
47811;BME280;33575;52.600;7.318;2022-12-18T09:20:01;102679.44;;;-6.64;86.30
47811;BME280;33575;52.600;7.318;2022-12-18T09:22:31;102685.12;;;-6.64;85.98
47811;BME280;33575;52.600;7.318;2022-12-18T09:25:05;102689.44;;;-6.63;86.11
47811;BME280;33575;52.600;7.318;2022-12-18T09:27:33;102685.27;;;-6.65;86.22
47811;BME280;33575;52.600;7.318;2022-12-18T09:30:04;102687.74;;;-6.63;86.07
47811;BME280;33575;52.600;7.318;2022-12-18T09:32:33;102694.89;;;-6.67;86.54
47811;BME280;33575;52.600;7.318;2022-12-18T09:35:04;102698.06;;;-6.60;87.45
47811;BME280;33575;52.600;7.318;2022-12-18T09:37:34;102696.79;;;-6.52;87.70
47811;BME280;33575;52.600;7.318;2022-12-18T09:40:05;102691.63;;;-6.44;87.89
47811;BME280;33575;52.600;7.318;2022-12-18T09:42:35;102686.02;;;-6.40;87.79
47811;BME280;33575;52.600;7.318;2022-12-18T09:45:11;102680.52;;;-6.35;88.32
47811;BME280;33575;52.600;7.318;2022-12-18T09:47:37;102672.52;;;-6.30;88.59
47811;BME280;33575;52.600;7.318;2022-12-18T09:50:16;102663.95;;;-6.21;88.40
47811;BME280;33575;52.600;7.318;2022-12-18T09:52:41;102657.86;;;-6.12;89.01
47811;BME280;33575;52.600;7.318;2022-12-18T09:55:14;102646.48;;;-6.02;89.08
47811;BME280;33575;52.600;7.318;2022-12-18T09:57:42;102636.32;;;-5.93;89.13
47811;BME280;33575;52.600;7.318;2022-12-18T10:00:16;102633.18;;;-5.85;88.92
47811;BME280;33575;52.600;7.318;2022-12-18T10:02:40;102632.49;;;-5.78;89.48
47811;BME280;33575;52.600;7.318;2022-12-18T10:05:12;102638.49;;;-5.69;89.42
47811;BME280;33575;52.600;7.318;2022-12-18T10:07:47;102645.18;;;-5.60;89.14
47811;BME280;33575;52.600;7.318;2022-12-18T10:10:21;102654.91;;;-5.51;89.40
47811;BME280;33575;52.600;7.318;2022-12-18T10:12:46;102653.53;;;-5.42;89.40
47811;BME280;33575;52.600;7.318;2022-12-18T10:15:19;102643.95;;;-5.29;89.25
47811;BME280;33575;52.600;7.318;2022-12-18T10:17:48;102635.85;;;-5.23;89.30
47811;BME280;33575;52.600;7.318;2022-12-18T10:20:16;102630.85;;;-5.12;89.07
47811;BME280;33575;52.600;7.318;2022-12-18T10:22:50;102637.76;;;-5.05;89.35
47811;BME280;33575;52.600;7.318;2022-12-18T10:25:20;102638.73;;;-4.96;89.20
47811;BME280;33575;52.600;7.318;2022-12-18T10:27:45;102637.22;;;-4.87;89.21
47811;BME280;33575;52.600;7.318;2022-12-18T10:30:18;102629.10;;;-4.81;89.53
47811;BME280;33575;52.600;7.318;2022-12-18T10:32:45;102623.49;;;-4.74;89.64
47811;BME280;33575;52.600;7.318;2022-12-18T10:35:19;102616.43;;;-4.65;89.26
47811;BME280;33575;52.600;7.318;2022-12-18T10:40:22;102607.60;;;-4.52;89.29
47811;BME280;33575;52.600;7.318;2022-12-18T10:45:17;102600.11;;;-4.42;88.80
47811;BME280;33575;52.600;7.318;2022-12-18T10:47:49;102603.68;;;-4.36;88.50
47811;BME280;33575;52.600;7.318;2022-12-18T10:50:24;102602.98;;;-4.33;88.26
47811;BME280;33575;52.600;7.318;2022-12-18T10:52:54;102596.40;;;-4.32;87.71
47811;BME280;33575;52.600;7.318;2022-12-18T10:55:18;102590.88;;;-4.31;87.34
47811;BME280;33575;52.600;7.318;2022-12-18T10:57:49;102583.24;;;-4.30;87.52
47811;BME280;33575;52.600;7.318;2022-12-18T11:00:23;102576.78;;;-4.26;87.91
47811;BME280;33575;52.600;7.318;2022-12-18T11:02:51;102573.63;;;-4.19;87.90
47811;BME280;33575;52.600;7.318;2022-12-18T11:05:26;102575.32;;;-4.13;88.06
47811;BME280;33575;52.600;7.318;2022-12-18T11:07:51;102576.19;;;-4.03;88.71
47811;BME280;33575;52.600;7.318;2022-12-18T11:10:23;102575.30;;;-3.89;88.92
47811;BME280;33575;52.600;7.318;2022-12-18T11:12:52;102566.30;;;-3.78;89.13
47811;BME280;33575;52.600;7.318;2022-12-18T11:15:26;102552.53;;;-3.61;93.08
47811;BME280;33575;52.600;7.318;2022-12-18T11:17:53;102548.58;;;-3.62;90.77
47811;BME280;33575;52.600;7.318;2022-12-18T11:20:30;102545.88;;;-3.69;89.51
47811;BME280;33575;52.600;7.318;2022-12-18T11:22:57;102534.38;;;-3.77;88.80
47811;BME280;33575;52.600;7.318;2022-12-18T11:25:30;102524.47;;;-3.93;88.72
47811;BME280;33575;52.600;7.318;2022-12-18T11:27:56;102524.24;;;-3.99;88.19
47811;BME280;33575;52.600;7.318;2022-12-18T11:30:27;102530.21;;;-4.02;88.92
47811;BME280;33575;52.600;7.318;2022-12-18T11:33:00;102538.52;;;-4.03;88.76
47811;BME280;33575;52.600;7.318;2022-12-18T11:35:37;102533.87;;;-4.05;89.45
47811;BME280;33575;52.600;7.318;2022-12-18T11:37:59;102531.25;;;-4.04;89.46
47811;BME280;33575;52.600;7.318;2022-12-18T11:40:31;102539.17;;;-3.99;89.36
47811;BME280;33575;52.600;7.318;2022-12-18T11:43:04;102536.22;;;-3.95;89.74
47811;BME280;33575;52.600;7.318;2022-12-18T11:45:29;102531.77;;;-3.87;89.71
47811;BME280;33575;52.600;7.318;2022-12-18T11:48:03;102527.70;;;-3.80;90.26
47811;BME280;33575;52.600;7.318;2022-12-18T11:50:34;102534.58;;;-3.77;90.15
47811;BME280;33575;52.600;7.318;2022-12-18T11:53:10;102543.76;;;-3.72;90.47
47811;BME280;33575;52.600;7.318;2022-12-18T11:55:37;102537.31;;;-3.65;90.42
47811;BME280;33575;52.600;7.318;2022-12-18T11:58:04;102530.69;;;-3.62;90.05
47811;BME280;33575;52.600;7.318;2022-12-18T12:00:31;102521.89;;;-3.60;90.58
47811;BME280;33575;52.600;7.318;2022-12-18T12:03:16;102518.32;;;-3.55;90.49
47811;BME280;33575;52.600;7.318;2022-12-18T12:05:42;102514.93;;;-3.53;90.38
47811;BME280;33575;52.600;7.318;2022-12-18T12:08:07;102507.14;;;-3.50;90.36
47811;BME280;33575;52.600;7.318;2022-12-18T12:10:40;102504.41;;;-3.51;90.66
47811;BME280;33575;52.600;7.318;2022-12-18T12:13:15;102495.85;;;-3.47;90.42
47811;BME280;33575;52.600;7.318;2022-12-18T12:15:40;102489.30;;;-3.49;90.73
47811;BME280;33575;52.600;7.318;2022-12-18T12:18:18;102480.17;;;-3.46;90.44
47811;BME280;33575;52.600;7.318;2022-12-18T12:20:46;102477.85;;;-3.43;90.72
47811;BME280;33575;52.600;7.318;2022-12-18T12:23:13;102477.71;;;-3.38;90.51
47811;BME280;33575;52.600;7.318;2022-12-18T12:25:40;102474.50;;;-3.36;90.04
47811;BME280;33575;52.600;7.318;2022-12-18T12:28:16;102467.81;;;-3.34;90.51
47811;BME280;33575;52.600;7.318;2022-12-18T12:30:44;102459.42;;;-3.30;90.26
47811;BME280;33575;52.600;7.318;2022-12-18T12:33:18;102451.07;;;-3.28;90.00
47811;BME280;33575;52.600;7.318;2022-12-18T12:35:47;102444.44;;;-3.26;90.32
47811;BME280;33575;52.600;7.318;2022-12-18T12:38:12;102437.74;;;-3.26;90.22
47811;BME280;33575;52.600;7.318;2022-12-18T12:40:47;102436.34;;;-3.24;90.52
47811;BME280;33575;52.600;7.318;2022-12-18T12:43:20;102433.05;;;-3.23;90.26
47811;BME280;33575;52.600;7.318;2022-12-18T12:45:42;102435.75;;;-3.21;89.93
47811;BME280;33575;52.600;7.318;2022-12-18T12:48:17;102443.23;;;-3.22;90.12
47811;BME280;33575;52.600;7.318;2022-12-18T12:50:41;102438.17;;;-3.18;89.87
47811;BME280;33575;52.600;7.318;2022-12-18T12:53:20;102429.14;;;-3.15;89.77
47811;BME280;33575;52.600;7.318;2022-12-18T12:55:42;102422.95;;;-3.16;90.13
47811;BME280;33575;52.600;7.318;2022-12-18T12:58:16;102421.44;;;-3.10;90.06
47811;BME280;33575;52.600;7.318;2022-12-18T13:00:52;102413.10;;;-3.10;89.89
47811;BME280;33575;52.600;7.318;2022-12-18T13:03:18;102400.07;;;-3.07;88.94
47811;BME280;33575;52.600;7.318;2022-12-18T13:05:48;102390.40;;;-3.06;89.35
47811;BME280;33575;52.600;7.318;2022-12-18T13:08:23;102377.12;;;-3.04;89.34
47811;BME280;33575;52.600;7.318;2022-12-18T13:10:44;102370.72;;;-3.08;89.63
47811;BME280;33575;52.600;7.318;2022-12-18T13:13:16;102373.46;;;-3.11;89.65
47811;BME280;33575;52.600;7.318;2022-12-18T13:15:45;102375.40;;;-3.06;89.46
47811;BME280;33575;52.600;7.318;2022-12-18T13:18:18;102372.18;;;-2.98;89.89